Time;durP1;ratioP1;P1;durP2;ratioP2;P2;SDS_P1;SDS_P2;PMS_P1;PMS_P2;Temp;Humidity;BMP_temperature;BMP_pressure;BME280_temperature;BME280_humidity;BME280_pressure;Samples;Min_cycle;Max_cycle;Signal;HPM_P1;HPM_P2
2023/07/05 00:00:59;;;;;;;5.70;2.20;;;;;;;17.70;100.00;100013.81;104229;1265;59737;-53
2023/07/05 00:03:27;;;;;;;10.60;4.60;;;;;;;17.73;100.00;100008.96;104136;1263;59763;-52
2023/07/05 00:05:54;;;;;;;10.20;4.60;;;;;;;17.76;100.00;100007.44;104870;1268;73073;-53
2023/07/05 00:08:23;;;;;;;6.70;2.80;;;;;;;17.79;100.00;100002.11;104321;1268;65603;-53
2023/07/05 00:11:00;;;;;;;3.00;2.20;;;;;;;17.81;100.00;100003.96;104384;1266;72662;-53
2023/07/05 00:13:28;;;;;;;5.10;1.90;;;;;;;17.83;100.00;100008.56;104560;1260;61712;-52
2023/07/05 00:15:55;;;;;;;4.80;2.00;;;;;;;17.85;100.00;100008.96;104529;1260;60386;-51
2023/07/05 00:18:23;;;;;;;11.10;3.20;;;;;;;17.88;100.00;100011.80;104480;1263;72109;-54
2023/07/05 00:20:50;;;;;;;4.60;2.00;;;;;;;17.92;100.00;100009.86;104632;1260;65505;-53
2023/07/05 00:23:18;;;;;;;4.10;2.00;;;;;;;17.97;100.00;100009.50;104535;1260;71377;-51
2023/07/05 00:25:45;;;;;;;3.60;2.00;;;;;;;18.02;100.00;100008.39;104543;1259;59756;-53
2023/07/05 00:28:12;;;;;;;3.90;2.50;;;;;;;18.05;100.00;100012.15;104520;1264;59659;-51
2023/07/05 00:30:42;;;;;;;3.40;2.30;;;;;;;18.06;100.00;100012.83;104716;1259;73762;-52
2023/07/05 00:33:10;;;;;;;4.70;3.20;;;;;;;18.02;100.00;100016.41;104564;1260;65653;-52
2023/07/05 00:35:46;;;;;;;4.20;3.20;;;;;;;17.93;100.00;100020.14;104469;1262;73688;-54
2023/07/05 00:38:13;;;;;;;3.60;1.70;;;;;;;17.83;100.00;100028.54;104403;1260;59730;-51
2023/07/05 00:40:41;;;;;;;4.10;1.30;;;;;;;17.74;100.00;100037.19;104389;1261;59676;-51
2023/07/05 00:43:09;;;;;;;2.60;2.00;;;;;;;17.66;100.00;100046.48;104392;1259;73059;-51
2023/07/05 00:45:59;;;;;;;5.90;2.20;;;;;;;17.57;100.00;100055.05;105296;1260;66027;-52
2023/07/05 00:48:51;;;;;;;3.20;2.40;;;;;;;17.50;100.00;100064.35;104891;1260;71434;-52
2023/07/05 00:51:22;;;;;;;7.00;3.20;;;;;;;17.45;100.00;100056.48;105003;1259;60627;-52
2023/07/05 00:53:51;;;;;;;5.50;3.40;;;;;;;17.47;100.00;100055.44;104819;1258;60194;-53
2023/07/05 00:56:36;;;;;;;5.00;4.20;;;;;;;17.52;100.00;100058.03;104640;1260;72998;-52
2023/07/05 00:59:03;;;;;;;4.80;3.70;;;;;;;17.56;100.00;100061.88;104762;1259;67091;-53
2023/07/05 01:01:31;;;;;;;2.40;1.80;;;;;;;17.58;100.00;100077.89;104665;1259;72869;-50
2023/07/05 01:03:59;;;;;;;3.60;1.80;;;;;;;17.57;100.00;100094.45;105084;1264;60864;-53
2023/07/05 01:06:27;;;;;;;4.10;2.00;;;;;;;17.57;100.00;100094.84;104393;1264;59608;-51
2023/07/05 01:08:54;;;;;;;3.40;2.50;;;;;;;17.58;100.00;100099.44;104467;1260;72868;-51
2023/07/05 01:11:28;;;;;;;3.50;2.70;;;;;;;17.62;100.00;100102.83;104206;1259;66095;-52
2023/07/05 01:14:38;;;;;;;3.90;2.60;;;;;;;17.67;100.00;100091.05;104509;1263;73149;-51
2023/07/05 01:17:23;;;;;;;3.40;3.10;;;;;;;17.75;100.00;100083.39;104554;1260;60047;-52
2023/07/05 01:19:57;;;;;;;5.60;3.70;;;;;;;17.83;100.00;100090.64;104572;1259;60068;-52
2023/07/05 01:22:36;;;;;;;4.90;2.70;;;;;;;17.86;100.00;100097.64;104568;1259;71737;-50
2023/07/05 01:25:25;;;;;;;7.30;4.20;;;;;;;17.88;100.00;100092.21;104410;1260;66743;-52
2023/07/05 01:28:27;;;;;;;5.70;3.40;;;;;;;17.90;100.00;100090.42;105054;1261;71985;-52
2023/07/05 01:31:19;;;;;;;3.00;2.70;;;;;;;17.92;100.00;100090.83;104789;1260;62667;-53
2023/07/05 01:33:54;;;;;;;2.70;2.20;;;;;;;17.95;100.00;100094.97;104347;1260;61634;-50
2023/07/05 01:36:22;;;;;;;2.70;2.10;;;;;;;17.97;100.00;100096.08;104651;1260;71604;-51
2023/07/05 01:38:49;;;;;;;6.20;2.70;;;;;;;18.00;100.00;100094.58;104969;1260;66037;-47
2023/07/05 01:41:16;;;;;;;2.80;2.30;;;;;;;18.03;100.00;100093.30;104325;1265;73122;-49
2023/07/05 01:43:45;;;;;;;3.20;3.00;;;;;;;18.06;100.00;100092.38;104388;1260;59901;-49
2023/07/05 01:46:21;;;;;;;3.80;3.10;;;;;;;18.07;100.00;100090.23;104365;1260;60030;-47
2023/07/05 01:49:27;;;;;;;2.70;2.40;;;;;;;18.09;100.00;100090.45;104652;1263;73488;-48
2023/07/05 01:52:34;;;;;;;6.90;3.40;;;;;;;18.11;100.00;100090.73;104455;1260;65517;-48
2023/07/05 01:55:10;;;;;;;4.80;3.60;;;;;;;18.11;100.00;100088.37;104517;1263;70973;-49
2023/07/05 01:57:50;;;;;;;4.10;3.20;;;;;;;18.08;100.00;100090.52;104802;1259;59733;-53
2023/07/05 02:00:18;;;;;;;4.00;3.30;;;;;;;18.02;100.00;100092.64;104322;1259;60529;-52
2023/07/05 02:02:52;;;;;;;5.70;3.40;;;;;;;18.00;100.00;100091.17;104711;1259;72998;-53
2023/07/05 02:05:21;;;;;;;;;;;;;;;18.01;100.00;100089.65;105628;1262;65654;-53
2023/07/05 02:07:49;;;;;;;4.50;2.70;;;;;;;18.02;100.00;100086.62;104514;1264;72698;-53
2023/07/05 02:10:16;;;;;;;9.50;3.80;;;;;;;18.04;100.00;100080.84;104295;1260;62899;-53
2023/07/05 02:12:44;;;;;;;3.50;3.20;;;;;;;18.08;100.00;100083.66;104612;1264;59595;-52
2023/07/05 02:15:12;;;;;;;3.30;3.00;;;;;;;18.12;100.00;100079.70;104413;1259;73657;-52
2023/07/05 02:17:40;;;;;;;4.10;3.00;;;;;;;18.18;100.00;100078.05;108670;1259;66098;-53
2023/07/05 02:20:07;;;;;;;5.40;4.00;;;;;;;18.20;100.00;100079.38;108621;1259;71510;-52
2023/07/05 02:22:35;;;;;;;3.70;3.30;;;;;;;18.21;100.00;100069.98;108683;1259;60523;-54
2023/07/05 02:25:03;;;;;;;4.70;3.90;;;;;;;18.24;100.00;100064.90;108623;1259;60540;-54
2023/07/05 02:27:31;;;;;;;4.40;3.00;;;;;;;18.26;100.00;100064.88;108683;1263;73096;-53
2023/07/05 02:29:59;;;;;;;3.50;3.10;;;;;;;18.29;100.00;100060.42;108666;1259;65718;-53
2023/07/05 02:32:27;;;;;;;8.80;2.40;;;;;;;18.33;100.00;100058.89;108631;1260;71119;-54
2023/07/05 02:34:58;;;;;;;2.10;1.90;;;;;;;18.37;100.00;100056.58;108628;1260;61756;-52
2023/07/05 02:37:26;;;;;;;2.90;2.70;;;;;;;18.41;100.00;100061.02;108621;1259;58845;-53
2023/07/05 02:39:54;;;;;;;3.10;2.90;;;;;;;18.45;100.00;100056.48;108702;1259;72987;-54
2023/07/05 02:42:21;;;;;;;5.80;4.00;;;;;;;18.51;100.00;100053.55;108653;1260;67291;-52
2023/07/05 02:44:49;;;;;;;4.30;3.30;;;;;;;18.56;100.00;100053.90;108675;1259;71706;-53
2023/07/05 02:47:18;;;;;;;3.30;3.00;;;;;;;18.61;100.00;100059.21;108710;1257;62854;-53
2023/07/05 02:49:45;;;;;;;6.90;4.10;;;;;;;18.60;100.00;100062.16;108775;1258;58831;-54
2023/07/05 02:52:13;;;;;;;3.60;3.10;;;;;;;18.56;100.00;100062.27;108643;1258;73693;-53
2023/07/05 02:54:40;;;;;;;4.30;2.50;;;;;;;18.56;100.00;100056.80;106657;1263;66808;-51
2023/07/05 02:57:08;;;;;;;2.80;2.60;;;;;;;18.56;100.00;100059.54;104376;1265;72506;-53
2023/07/05 02:59:35;;;;;;;2.40;2.20;;;;;;;18.58;100.00;100060.46;104507;1265;61667;-51
2023/07/05 03:02:03;;;;;;;3.00;2.80;;;;;;;18.62;100.00;100066.50;104455;1260;60572;-53
2023/07/05 03:04:31;;;;;;;3.00;2.80;;;;;;;18.66;100.00;100058.56;104788;1265;72035;-52
2023/07/05 03:06:58;;;;;;;2.90;2.70;;;;;;;18.69;100.00;100053.98;104466;1260;69251;-52
2023/07/05 03:09:26;;;;;;;4.30;3.40;;;;;;;18.71;100.00;100056.35;104481;1263;70290;-52
2023/07/05 03:11:54;;;;;;;8.50;3.50;;;;;;;18.74;100.00;100053.08;104632;1265;60517;-53
2023/07/05 03:14:21;;;;;;;4.30;3.60;;;;;;;18.75;100.00;100052.25;104661;1260;60456;-51
2023/07/05 03:16:48;;;;;;;4.40;2.60;;;;;;;18.75;100.00;100045.86;104556;1259;72606;-53
2023/07/05 03:19:16;;;;;;;5.10;2.00;;;;;;;18.77;100.00;100039.20;104568;1260;65576;-52
2023/07/05 03:21:43;;;;;;;4.50;2.60;;;;;;;18.78;100.00;100034.77;104678;1260;71064;-52
2023/07/05 03:24:11;;;;;;;2.80;1.90;;;;;;;18.80;100.00;100040.41;104509;1264;62146;-52
2023/07/05 03:26:38;;;;;;;2.70;2.50;;;;;;;18.83;100.00;100042.70;104491;1260;60669;-51
2023/07/05 03:29:05;;;;;;;5.50;2.70;;;;;;;18.86;100.00;100047.19;104519;1260;73892;-53
2023/07/05 03:31:33;;;;;;;3.50;2.60;;;;;;;18.91;100.00;100045.92;104600;1259;65528;-53
2023/07/05 03:34:01;;;;;;;4.10;2.70;;;;;;;18.96;100.00;100053.39;104557;1264;72305;-52
2023/07/05 03:36:28;;;;;;;2.70;2.50;;;;;;;18.99;100.00;100052.20;104544;1264;60457;-52
2023/07/05 03:38:55;;;;;;;5.10;3.50;;;;;;;19.01;100.00;100044.75;104561;1265;60431;-52
2023/07/05 03:41:25;;;;;;;3.40;3.10;;;;;;;19.04;100.00;100042.16;104506;1261;74368;-49
2023/07/05 03:44:01;;;;;;;2.90;2.40;;;;;;;19.07;100.00;100039.55;104505;1257;66746;-50
2023/07/05 03:46:28;;;;;;;5.70;3.10;;;;;;;19.09;100.00;100040.89;104498;1260;71426;-53
2023/07/05 03:48:56;;;;;;;2.80;2.60;;;;;;;19.08;100.00;100038.92;104724;1260;62163;-52
2023/07/05 03:51:23;;;;;;;2.80;1.90;;;;;;;19.08;100.00;100036.79;104522;1260;60563;-51
2023/07/05 03:53:52;;;;;;;3.20;2.10;;;;;;;19.09;100.00;100037.40;104746;1260;72932;-53
2023/07/05 03:56:20;;;;;;;4.20;1.70;;;;;;;19.12;100.00;100036.23;104682;1260;65520;-52
2023/07/05 03:58:47;;;;;;;3.50;3.20;;;;;;;19.16;100.00;100034.80;104693;1257;73137;-53
2023/07/05 04:01:15;;;;;;;4.00;3.00;;;;;;;19.20;100.00;100034.30;104443;1260;61079;-51
2023/07/05 04:03:54;;;;;;;7.70;2.80;;;;;;;19.23;100.00;100037.86;104765;1260;60802;-53
2023/07/05 04:06:23;;;;;;;6.10;3.20;;;;;;;19.27;100.00;100040.51;105955;1260;73821;-52
2023/07/05 04:08:50;;;;;;;3.40;2.40;;;;;;;19.27;100.00;100041.25;104620;1260;66976;-51
2023/07/05 04:11:18;;;;;;;5.60;2.80;;;;;;;19.28;100.00;100037.14;104452;1261;71460;-53
2023/07/05 04:13:45;;;;;;;6.00;2.00;;;;;;;19.30;100.00;100032.62;104558;1260;61617;-51
2023/07/05 04:16:15;;;;;;;2.50;1.90;;;;;;;19.33;100.00;100028.72;105029;1264;60405;-53
2023/07/05 04:18:43;;;;;;;4.90;2.80;;;;;;;19.38;100.00;100028.34;104461;1258;76117;-53
2023/07/05 04:21:11;;;;;;;4.00;1.60;;;;;;;19.43;100.00;100029.75;104423;1258;68021;-52
2023/07/05 04:23:39;;;;;;;4.40;2.90;;;;;;;19.49;100.00;100032.73;104504;1265;71432;-52
2023/07/05 04:26:08;;;;;;;3.20;2.70;;;;;;;19.54;100.00;100034.48;104579;1260;60899;-51
2023/07/05 04:28:36;;;;;;;6.10;3.70;;;;;;;19.61;100.00;100035.60;105023;1260;60463;-53
2023/07/05 04:31:06;;;;;;;3.80;3.20;;;;;;;19.66;100.00;100033.70;104444;1263;73793;-52
2023/07/05 04:33:33;;;;;;;3.10;2.80;;;;;;;19.72;100.00;100029.21;104567;1260;66969;-52
2023/07/05 04:36:01;;;;;;;3.40;2.10;;;;;;;19.78;100.00;100034.02;104461;1264;73256;-53
2023/07/05 04:38:28;;;;;;;2.80;2.50;;;;;;;19.84;100.00;100035.90;104391;1265;60941;-52
2023/07/05 04:40:56;;;;;;;5.70;2.40;;;;;;;19.90;100.00;100035.42;104228;1260;60866;-54
2023/07/05 04:43:26;;;;;;;6.90;1.80;;;;;;;19.96;100.00;100038.75;104323;1260;73845;-53
2023/07/05 04:45:57;;;;;;;2.50;2.00;;;;;;;20.02;100.00;100041.09;104649;1260;66272;-53
2023/07/05 04:48:26;;;;;;;4.10;1.90;;;;;;;20.09;100.00;100043.80;105520;1264;72683;-49
2023/07/05 04:50:54;;;;;;;3.70;2.50;;;;;;;20.17;100.00;100043.01;104414;1260;60423;-53
2023/07/05 04:53:23;;;;;;;7.40;2.50;;;;;;;20.24;100.00;100045.52;104913;1260;60549;-50
2023/07/05 04:55:52;;;;;;;5.50;2.60;;;;;;;20.29;100.00;100046.53;104539;1265;74947;-52
2023/07/05 04:58:20;;;;;;;6.40;3.40;;;;;;;20.32;100.00;100041.16;104555;1263;65521;-53
2023/07/05 05:00:49;;;;;;;4.30;2.90;;;;;;;20.35;100.00;100042.76;104551;1260;73128;-53
2023/07/05 05:03:19;;;;;;;2.90;2.20;;;;;;;20.38;100.00;100039.02;104540;1260;60505;-53
2023/07/05 05:05:50;;;;;;;2.30;2.10;;;;;;;20.42;100.00;100042.00;105339;1262;60651;-53
2023/07/05 05:08:21;;;;;;;3.00;1.90;;;;;;;20.46;100.00;100043.48;105016;1260;72234;-52
2023/07/05 05:10:53;;;;;;;2.20;1.80;;;;;;;20.51;100.00;100050.31;105076;1257;67468;-51
2023/07/05 05:13:22;;;;;;;4.10;2.30;;;;;;;20.57;100.00;100051.27;106056;1260;72435;-51
2023/07/05 05:15:50;;;;;;;4.90;1.80;;;;;;;20.63;100.00;100052.41;105087;1260;60564;-51
2023/07/05 05:18:17;;;;;;;4.50;2.80;;;;;;;20.68;100.00;100044.53;106130;1263;59282;-50
2023/07/05 05:20:45;;;;;;;4.70;3.00;;;;;;;20.70;100.00;100038.11;105186;1259;73890;-52
2023/07/05 05:23:13;;;;;;;5.10;3.20;;;;;;;20.73;100.00;100034.03;104646;1265;65650;-49
2023/07/05 05:25:44;;;;;;;5.80;3.30;;;;;;;20.72;100.00;100031.23;104342;1263;72685;-51
2023/07/05 05:28:12;;;;;;;4.50;2.30;;;;;;;20.67;100.00;100023.25;104443;1259;60638;-49
2023/07/05 05:30:40;;;;;;;3.30;2.50;;;;;;;20.62;100.00;100018.97;104464;1260;60758;-51
2023/07/05 05:33:15;;;;;;;2.80;2.50;;;;;;;20.58;100.00;100021.31;108708;1257;75535;-52
2023/07/05 05:35:49;;;;;;;8.10;3.10;;;;;;;20.57;100.00;100025.05;108794;1257;66732;-52
2023/07/05 05:38:17;;;;;;;5.80;2.80;;;;;;;20.59;100.00;100022.66;108712;1259;72735;-52
2023/07/05 05:40:45;;;;;;;5.60;2.70;;;;;;;20.61;100.00;100027.28;108683;1258;58830;-52
2023/07/05 05:43:12;;;;;;;2.80;2.20;;;;;;;20.61;100.00;100025.56;108746;1259;60580;-52
2023/07/05 05:45:41;;;;;;;3.20;2.80;;;;;;;20.65;100.00;100018.35;108707;1259;72871;-52
2023/07/05 05:48:09;;;;;;;3.60;3.30;;;;;;;20.68;100.00;100011.65;108607;1259;66953;-54
2023/07/05 05:50:36;;;;;;;5.10;3.10;;;;;;;20.71;100.00;100007.05;108682;1260;72441;-51
2023/07/05 05:53:03;;;;;;;3.00;2.50;;;;;;;20.75;100.00;100009.94;108672;1259;60447;-52
2023/07/05 05:55:31;;;;;;;6.40;3.20;;;;;;;20.81;100.00;100011.83;108738;1260;60080;-52
2023/07/05 05:57:58;;;;;;;3.60;2.80;;;;;;;20.87;100.00;100016.41;108675;1260;76026;-53
2023/07/05 06:00:25;;;;;;;3.20;2.90;;;;;;;20.93;100.00;100019.88;108713;1259;66849;-54
2023/07/05 06:02:53;;;;;;;5.20;3.10;;;;;;;20.99;100.00;100020.63;108681;1260;71409;-52
2023/07/05 06:05:20;;;;;;;3.60;2.50;;;;;;;21.06;100.00;100013.67;108605;1260;58959;-53
2023/07/05 06:07:48;;;;;;;3.40;3.20;;;;;;;21.11;100.00;100012.80;108772;1259;58734;-52
2023/07/05 06:10:15;;;;;;;3.20;2.70;;;;;;;21.17;100.00;100018.15;107581;1260;73840;-51
2023/07/05 06:12:42;;;;;;;3.40;3.10;;;;;;;21.23;100.00;100022.45;104443;1260;65449;-52
2023/07/05 06:15:11;;;;;;;3.00;2.80;;;;;;;21.27;100.00;100023.68;104436;1260;72664;-54
2023/07/05 06:17:38;;;;;;;4.40;3.10;;;;;;;21.31;100.00;100023.33;105146;1260;60578;-52
2023/07/05 06:20:07;;;;;;;5.20;3.30;;;;;;;21.33;100.00;100022.77;104571;1259;60482;-52
2023/07/05 06:22:38;;;;;;;3.50;2.80;;;;;;;21.35;100.00;100025.14;104538;1266;72687;-54
2023/07/05 06:25:06;;;;;;;4.80;2.70;;;;;;;21.37;100.00;100025.11;104430;1260;65852;-54
2023/07/05 06:27:34;;;;;;;6.70;2.50;;;;;;;21.41;100.00;100024.05;105101;1263;70129;-54
2023/07/05 06:30:01;;;;;;;7.60;4.10;;;;;;;21.45;100.00;100017.14;104467;1260;60601;-51
2023/07/05 06:32:29;;;;;;;10.40;2.80;;;;;;;21.51;100.00;100016.02;104405;1260;60591;-52
2023/07/05 06:34:56;;;;;;;10.30;2.20;;;;;;;21.57;100.00;100012.95;104462;1265;73822;-53
2023/07/05 06:37:23;;;;;;;7.10;3.40;;;;;;;21.63;100.00;100009.17;104534;1260;66956;-52
2023/07/05 06:39:51;;;;;;;4.80;3.40;;;;;;;21.65;100.00;100000.73;104386;1263;73158;-53
2023/07/05 06:42:18;;;;;;;4.70;4.30;;;;;;;21.68;100.00;99999.02;104455;1264;60665;-54
2023/07/05 06:44:50;;;;;;;8.80;4.10;;;;;;;21.69;100.00;99996.52;104477;1261;60656;-52
2023/07/05 06:47:18;;;;;;;5.50;4.50;;;;;;;21.70;100.00;100001.02;104693;1263;74331;-54
2023/07/05 06:49:45;;;;;;;8.60;3.70;;;;;;;21.70;100.00;100006.46;104816;1260;66990;-54
2023/07/05 06:52:13;;;;;;;5.60;3.50;;;;;;;21.71;100.00;100018.58;104494;1265;71382;-54
2023/07/05 06:54:40;;;;;;;8.20;3.70;;;;;;;21.74;100.00;100029.30;104606;1265;60740;-53
2023/07/05 06:57:07;;;;;;;4.90;4.50;;;;;;;21.78;100.00;100029.89;104582;1263;60463;-53
2023/07/05 06:59:35;;;;;;;4.40;4.00;;;;;;;21.83;100.00;100029.05;104549;1260;72606;-53
2023/07/05 07:02:03;;;;;;;6.30;4.20;;;;;;;21.88;100.00;100025.45;104568;1260;64963;-53
2023/07/05 07:04:30;;;;;;;9.40;5.00;;;;;;;21.93;100.00;100024.19;104779;1265;73141;-54
2023/07/05 07:06:58;;;;;;;7.30;4.30;;;;;;;21.97;100.00;100025.21;104556;1262;60507;-53
2023/07/05 07:09:25;;;;;;;4.70;4.00;;;;;;;22.02;100.00;100029.17;104672;1266;60951;-53
2023/07/05 07:11:53;;;;;;;8.30;3.30;;;;;;;22.07;100.00;100034.35;104726;1263;73881;-54
2023/07/05 07:14:20;;;;;;;10.20;3.00;;;;;;;22.13;100.00;100037.33;104682;1264;66737;-53
2023/07/05 07:16:47;;;;;;;5.50;3.80;;;;;;;22.15;100.00;100044.02;104669;1260;72594;-52
2023/07/05 07:19:15;;;;;;;4.40;3.10;;;;;;;22.19;100.00;100049.92;104724;1261;60538;-51
2023/07/05 07:21:43;;;;;;;4.90;3.30;;;;;;;22.22;100.00;100053.63;104622;1260;60351;-51
2023/07/05 07:24:11;;;;;;;3.70;3.10;;;;;;;22.24;100.00;100060.21;104654;1263;72650;-50
2023/07/05 07:26:38;;;;;;;5.10;3.00;;;;;;;22.26;100.00;100063.33;104519;1262;68020;-50
2023/07/05 07:29:08;;;;;;;5.60;3.00;;;;;;;22.30;100.00;100063.70;104520;1263;73071;-51
2023/07/05 07:31:36;;;;;;;6.00;3.10;;;;;;;22.34;100.00;100062.77;105116;1261;61266;-51
2023/07/05 07:34:05;;;;;;;5.10;2.80;;;;;;;22.40;100.00;100067.31;104865;1263;60566;-50
2023/07/05 07:36:33;;;;;;;4.70;3.20;;;;;;;22.48;100.00;100068.58;104465;1260;73862;-52
2023/07/05 07:39:00;;;;;;;3.90;3.30;;;;;;;22.57;100.00;100071.23;104375;1264;66782;-52
2023/07/05 07:41:29;;;;;;;5.60;3.30;;;;;;;22.67;100.00;100070.12;104445;1263;73283;-51
2023/07/05 07:44:05;;;;;;;5.60;3.20;;;;;;;22.76;100.00;100065.98;104767;1263;60507;-52
2023/07/05 07:46:33;;;;;;;3.70;3.20;;;;;;;22.85;100.00;100069.89;104922;1260;60570;-51
2023/07/05 07:49:01;;;;;;;3.80;3.40;;;;;;;22.93;100.00;100068.44;104548;1263;73834;-52
2023/07/05 07:51:31;;;;;;;4.60;2.60;;;;;;;23.01;100.00;100072.95;104840;1258;67278;-51
2023/07/05 07:54:01;;;;;;;4.40;3.20;;;;;;;23.09;100.00;100071.81;104714;1263;71463;-51
2023/07/05 07:56:29;;;;;;;6.00;3.00;;;;;;;23.17;100.00;100076.34;104621;1266;60941;-53
2023/07/05 07:58:58;;;;;;;7.60;3.60;;;;;;;23.24;100.00;100075.63;104565;1263;60508;-53
2023/07/05 08:01:27;;;;;;;4.80;3.60;;;;;;;23.31;100.00;100078.83;104391;1260;73896;-52
2023/07/05 08:03:55;;;;;;;8.30;4.20;;;;;;;23.39;100.00;100081.38;104902;1261;65841;-53
2023/07/05 08:06:31;;;;;;;10.70;3.90;;;;;;;23.45;100.00;100080.58;104420;1264;73038;-52
2023/07/05 08:08:59;;;;;;;6.30;4.00;;;;;;;23.52;100.00;100080.19;104990;1260;60656;-52
2023/07/05 08:11:26;;;;;;;7.30;3.10;;;;;;;23.59;100.00;100081.70;104265;1264;60478;-52
2023/07/05 08:13:53;;;;;;;7.10;3.10;;;;;;;23.66;100.00;100079.88;104354;1263;73750;-52
2023/07/05 08:16:21;;;;;;;8.10;3.90;;;;;;;23.72;100.00;100073.56;104700;1263;68119;-52
2023/07/05 08:18:49;;;;;;;9.00;4.30;;;;;;;23.80;100.00;100074.31;104448;1263;73112;-51
2023/07/05 08:21:17;;;;;;;8.80;3.90;;;;;;;23.86;100.00;100075.85;104394;1263;60490;-52
2023/07/05 08:23:44;;;;;;;6.20;3.30;;;;;;;23.92;100.00;100072.92;104462;1257;60390;-51
2023/07/05 08:26:12;;;;;;;7.20;3.90;;;;;;;23.96;100.00;100077.29;104545;1262;74392;-52
2023/07/05 08:28:39;;;;;;;7.10;3.60;;;;;;;24.01;100.00;100074.94;106074;1262;66899;-53
2023/07/05 08:31:07;;;;;;;6.00;3.00;;;;;;;24.07;100.00;100071.15;104831;1260;73280;-52
2023/07/05 08:33:36;;;;;;;12.10;4.10;;;;;;;24.17;100.00;100072.09;107588;1263;60722;-53
2023/07/05 08:36:29;;;;;;;9.60;4.20;;;;;;;24.23;100.00;100074.75;108336;1257;59517;-52
2023/07/05 08:38:59;;;;;;;6.80;3.60;;;;;;;24.29;100.00;100072.31;107024;1263;73074;-53
2023/07/05 08:41:29;;;;;;;5.80;3.60;;;;;;;24.34;100.00;100072.73;104627;1263;65753;-52
2023/07/05 08:44:42;;;;;;;7.60;3.60;;;;;;;24.39;100.00;100070.05;104564;1262;72649;-53
2023/07/05 08:47:20;;;;;;;10.90;4.10;;;;;;;24.45;100.00;100074.20;108265;1267;60492;-54
2023/07/05 08:49:59;;;;;;;6.40;4.20;;;;;;;24.46;100.00;100078.27;108761;1260;60203;-54
2023/07/05 08:52:36;;;;;;;8.40;3.00;;;;;;;24.46;100.00;100081.27;108673;1257;73891;-54
2023/07/05 08:55:08;;;;;;;5.90;3.10;;;;;;;24.45;100.00;100079.10;108720;1259;68348;-53
2023/07/05 08:57:43;;;;;;;4.40;4.00;;;;;;;24.46;100.00;100077.60;108774;1258;72654;-51
2023/07/05 09:00:13;;;;;;;9.00;3.20;;;;;;;24.45;100.00;100082.78;108714;1258;58452;-51
2023/07/05 09:02:40;;;;;;;6.70;3.10;;;;;;;24.44;100.00;100080.66;108678;1258;59583;-51
2023/07/05 09:05:46;;;;;;;4.80;3.10;;;;;;;24.42;100.00;100078.50;108789;1257;73899;-52
2023/07/05 09:08:19;;;;;;;5.90;3.00;;;;;;;24.39;100.00;100080.52;108607;1257;67378;-52
2023/07/05 09:10:53;;;;;;;3.90;3.10;;;;;;;24.34;100.00;100079.48;108714;1262;72641;-52
2023/07/05 09:13:31;;;;;;;3.80;2.70;;;;;;;24.31;100.00;100084.98;108710;1258;58949;-52
2023/07/05 09:16:20;;;;;;;4.70;3.90;;;;;;;24.26;100.00;100085.44;108710;1258;58834;-52
2023/07/05 09:19:20;;;;;;;6.30;2.90;;;;;;;24.22;100.00;100089.15;108739;1257;73872;-51
2023/07/05 09:21:55;;;;;;;4.60;3.20;;;;;;;24.21;100.00;100087.47;107011;1264;69095;-51
2023/07/05 09:24:31;;;;;;;4.60;3.30;;;;;;;24.19;100.00;100085.41;106805;1261;72843;-52
2023/07/05 09:27:03;;;;;;;8.60;3.30;;;;;;;24.19;100.00;100086.73;104677;1259;60549;-52
2023/07/05 09:29:52;;;;;;;6.60;3.20;;;;;;;24.19;100.00;100087.45;104669;1262;60443;-52
2023/07/05 09:32:42;;;;;;;6.40;2.90;;;;;;;24.19;100.00;100082.64;104646;1258;73819;-53
2023/07/05 09:35:16;;;;;;;5.20;3.40;;;;;;;24.22;100.00;100080.64;105453;1257;65714;-52
2023/07/05 09:38:08;;;;;;;9.80;4.60;;;;;;;24.26;100.00;100077.77;104897;1261;72538;-53
2023/07/05 09:40:39;;;;;;;10.70;4.50;;;;;;;24.31;100.00;100071.00;105404;1260;60452;-53
2023/07/05 09:43:11;;;;;;;7.20;3.30;;;;;;;24.35;100.00;100072.67;104680;1257;60597;-52
2023/07/05 09:45:39;;;;;;;4.40;3.40;;;;;;;24.38;100.00;100066.09;104756;1261;72626;-53
2023/07/05 09:48:09;;;;;;;3.50;2.40;;;;;;;24.43;100.00;100067.41;105013;1261;65513;-53
2023/07/05 09:50:41;;;;;;;6.50;3.40;;;;;;;24.47;100.00;100065.69;106109;1261;71399;-52
2023/07/05 09:53:24;;;;;;;7.10;3.70;;;;;;;24.49;100.00;100069.86;104960;1259;60443;-54
2023/07/05 09:56:12;;;;;;;7.00;3.60;;;;;;;24.54;100.00;100070.52;104378;1262;60518;-54
2023/07/05 09:58:40;;;;;;;5.80;3.20;;;;;;;24.59;100.00;100070.78;104439;1264;73913;-54
2023/07/05 10:01:12;;;;;;;6.80;3.90;;;;;;;24.65;100.00;100068.83;104443;1263;65519;-54
2023/07/05 10:03:48;;;;;;;8.00;3.60;;;;;;;24.71;100.00;100062.84;105064;1263;72687;-53
2023/07/05 10:06:18;;;;;;;8.00;3.30;;;;;;;24.81;100.00;100057.84;104125;1270;60530;-52
2023/07/05 10:08:48;;;;;;;8.10;3.40;;;;;;;24.90;100.00;100057.42;105647;1260;60544;-53
2023/07/05 10:11:33;;;;;;;11.10;2.60;;;;;;;24.97;100.00;100058.74;104907;1258;73868;-52
2023/07/05 10:14:07;;;;;;;7.20;3.30;;;;;;;25.05;100.00;100056.33;104809;1263;66827;-52
2023/07/05 10:16:53;;;;;;;9.70;4.50;;;;;;;25.11;100.00;100060.21;104567;1263;72721;-54
2023/07/05 10:19:53;;;;;;;4.40;3.30;;;;;;;25.18;100.00;100061.50;105360;1261;60529;-52
2023/07/05 10:22:31;;;;;;;7.70;4.30;;;;;;;25.28;100.00;100059.20;104633;1263;60441;-53
2023/07/05 10:25:02;;;;;;;6.90;3.70;;;;;;;25.35;100.00;100059.18;104803;1261;72870;-53
2023/07/05 10:27:34;;;;;;;8.30;3.80;;;;;;;25.41;100.00;100057.69;104861;1260;69743;-53
2023/07/05 10:30:16;;;;;;;6.10;3.20;;;;;;;25.45;100.00;100059.39;104731;1263;71200;-52
2023/07/05 10:32:49;;;;;;;7.20;3.60;;;;;;;25.48;100.00;100060.70;105110;1260;60605;-52
2023/07/05 10:35:22;;;;;;;10.30;5.00;;;;;;;25.50;100.00;100056.45;104761;1258;60466;-50
2023/07/05 10:37:50;;;;;;;5.10;3.60;;;;;;;25.53;100.00;100058.73;104610;1261;73823;-53
2023/07/05 10:40:18;;;;;;;4.10;3.80;;;;;;;25.57;100.00;100055.59;104332;1260;67180;-51
2023/07/05 10:42:49;;;;;;;4.10;3.60;;;;;;;25.60;100.00;100050.80;105090;1258;72719;-51
2023/07/05 10:45:20;;;;;;;5.00;3.50;;;;;;;25.64;100.00;100047.52;104419;1264;60516;-52
2023/07/05 10:47:54;;;;;;;4.70;3.50;;;;;;;25.64;100.00;100047.67;104827;1258;62665;-52
2023/07/05 10:50:32;;;;;;;;;;;;;;;25.64;100.00;100048.02;104747;1260;73876;-50
2023/07/05 10:53:03;;;;;;;3.70;2.60;;;;;;;25.65;100.00;100044.44;104557;1262;66783;-51
2023/07/05 10:55:56;;;;;;;6.00;3.40;;;;;;;25.66;100.00;100042.34;104506;1264;75308;-53
2023/07/05 10:58:23;;;;;;;7.40;3.30;;;;;;;25.68;100.00;100041.77;104473;1260;251694;-52
2023/07/05 11:01:47;;;;;;;5.50;3.50;;;;;;;25.75;100.00;100049.52;102038;1289;599615;-52
2023/07/05 11:04:18;;;;;;;10.20;4.10;;;;;;;25.76;100.00;100047.16;104231;1270;59542;-53
2023/07/05 11:06:46;;;;;;;6.20;3.50;;;;;;;25.79;100.00;100041.16;104190;1269;60937;-52
2023/07/05 11:09:13;;;;;;;4.70;3.80;;;;;;;25.82;100.00;100038.40;104107;1266;72805;-52
2023/07/05 11:11:44;;;;;;;5.30;3.50;;;;;;;25.85;100.00;100035.52;104187;1264;67097;-50
2023/07/05 11:14:12;;;;;;;5.30;3.60;;;;;;;25.85;100.00;100034.70;104286;1264;213996;-51
2023/07/05 11:16:45;;;;;;;5.60;3.70;;;;;;;25.86;100.00;100029.66;104246;1269;59359;-52
2023/07/05 11:19:17;;;;;;;4.50;3.80;;;;;;;25.87;100.00;100027.86;104462;1263;59453;-51
2023/07/05 11:21:46;;;;;;;5.00;3.60;;;;;;;25.88;100.00;100026.38;104330;1264;71881;-54
2023/07/05 11:24:39;;;;;;;12.60;4.20;;;;;;;25.87;100.00;100022.14;105135;1263;66049;-51
2023/07/05 11:27:40;;;;;;;7.10;4.20;;;;;;;25.90;100.00;100020.23;104262;1268;72712;-51
2023/07/05 11:30:37;;;;;;;6.40;4.30;;;;;;;25.97;100.00;100014.16;104280;1261;59714;-53